Time;durP1;ratioP1;P1;durP2;ratioP2;P2;SDS_P1;SDS_P2;PMS_P1;PMS_P2;Temp;Humidity;BMP_temperature;BMP_pressure;BME280_temperature;BME280_humidity;BME280_pressure;Samples;Min_cycle;Max_cycle;Signal;HPM_P1;HPM_P2
2022/11/18 00:01:26;;;;;;;41.95;20.20;;;;;;;-1.98;80.75;99736.19;1816486;78;26515;-86
2022/11/18 00:03:53;;;;;;;45.92;21.77;;;;;;;-1.96;81.03;99736.41;1813031;78;25792;-86
2022/11/18 00:06:23;;;;;;;43.85;22.67;;;;;;;-1.96;81.31;99736.41;1811951;76;27410;-85
2022/11/18 00:08:51;;;;;;;39.18;21.55;;;;;;;-1.94;81.59;99734.97;1821411;77;25752;-86
2022/11/18 00:14:22;;;;;;;39.83;20.35;;;;;;;-1.95;82.04;99734.16;1822035;77;26303;-86
2022/11/18 00:16:59;;;;;;;37.95;21.37;;;;;;;-1.93;82.31;99730.08;1829448;77;25919;-85
2022/11/18 00:19:36;;;;;;;46.98;22.42;;;;;;;-1.91;82.63;99721.59;1809921;77;28719;-87
2022/11/18 00:22:05;;;;;;;33.45;19.27;;;;;;;-1.93;83.05;99713.02;1768310;79;26439;-85
2022/11/18 00:24:31;;;;;;;38.28;21.10;;;;;;;-1.93;83.05;99713.02;1811358;78;25771;-87
2022/11/18 00:26:58;;;;;;;39.83;21.35;;;;;;;-1.87;82.93;99718.59;1773402;79;25764;-85
2022/11/18 00:29:27;;;;;;;41.92;21.17;;;;;;;-1.85;83.33;99717.14;1822340;76;25721;-86
2022/11/18 00:31:54;;;;;;;41.25;20.30;;;;;;;-1.85;83.27;99715.83;1816066;77;27435;-87
2022/11/18 00:34:21;;;;;;;37.73;19.60;;;;;;;-1.86;83.34;99707.11;1817368;77;26109;-87
2022/11/18 00:36:48;;;;;;;36.93;20.45;;;;;;;-1.78;83.46;99714.36;1798823;78;25848;-86
2022/11/18 00:39:17;;;;;;;40.43;22.02;;;;;;;-1.77;83.48;99713.38;1821474;77;26525;-85
2022/11/18 00:44:30;;;;;;;39.40;22.37;;;;;;;-1.72;83.71;99723.86;1818813;77;27446;-86
2022/11/18 00:46:56;;;;;;;39.88;21.37;;;;;;;-1.69;83.74;99722.27;1821853;77;25247;-86
2022/11/18 00:49:23;;;;;;;37.65;22.37;;;;;;;-1.64;83.82;99724.03;1817279;77;25902;-85
2022/11/18 00:51:50;;;;;;;38.92;21.75;;;;;;;-1.61;83.71;99722.46;1813240;77;25829;-86
2022/11/18 00:54:16;;;;;;;37.58;20.12;;;;;;;-1.58;83.86;99726.59;1789166;79;25769;-86
2022/11/18 00:56:42;;;;;;;39.48;21.87;;;;;;;-1.57;83.83;99722.55;1810380;77;27435;-86
2022/11/18 00:59:09;;;;;;;36.83;21.27;;;;;;;-1.59;83.88;99721.02;1784546;79;26370;-86
2022/11/18 01:01:35;;;;;;;38.23;22.45;;;;;;;-1.59;83.88;99721.02;1837307;77;26255;-85
2022/11/18 01:04:02;;;;;;;35.90;19.60;;;;;;;-1.52;84.03;99722.16;1819095;77;26506;-86
2022/11/18 01:06:29;;;;;;;34.48;20.85;;;;;;;-1.50;84.09;99722.02;1804487;77;25764;-86
2022/11/18 01:08:55;;;;;;;34.48;20.77;;;;;;;-1.48;84.08;99718.77;1759281;80;28245;-85
2022/11/18 01:14:06;;;;;;;37.20;21.15;;;;;;;-1.43;84.20;99716.09;1816983;77;25730;-86
2022/11/18 01:16:32;;;;;;;40.30;21.77;;;;;;;-1.37;84.30;99717.38;1827000;77;26853;-85
2022/11/18 01:18:59;;;;;;;37.20;21.00;;;;;;;-1.31;84.38;99719.47;1812714;77;25810;-85
2022/11/18 01:21:25;;;;;;;36.23;20.65;;;;;;;-1.27;84.37;99714.28;1793371;79;28017;-85
2022/11/18 01:23:51;;;;;;;39.63;20.48;;;;;;;-1.24;84.31;99720.09;1813820;77;26008;-86
2022/11/18 01:26:18;;;;;;;33.63;19.57;;;;;;;-1.21;84.33;99717.22;1765510;79;25832;-85
2022/11/18 01:28:44;;;;;;;34.23;19.75;;;;;;;-1.17;84.34;99709.41;1824945;78;25829;-85
2022/11/18 01:31:18;;;;;;;30.92;19.15;;;;;;;-1.14;84.17;99710.47;1803491;77;25851;-86
2022/11/18 01:33:45;;;;;;;29.40;18.77;;;;;;;-1.13;84.12;99712.11;1791626;78;28334;-85
2022/11/18 01:36:26;;;;;;;32.58;19.85;;;;;;;-1.13;84.12;99712.11;1837240;77;25781;-86
2022/11/18 01:38:53;;;;;;;;;;;;;;;-1.14;83.99;99706.53;1825648;77;25974;-86
2022/11/18 01:41:23;;;;;;;33.30;19.02;;;;;;;-1.12;84.11;99704.59;1816747;77;26545;-87
2022/11/18 01:44:00;;;;;;;31.90;19.27;;;;;;;-1.10;84.19;99707.92;1832681;77;25783;-85
2022/11/18 01:46:30;;;;;;;31.87;18.32;;;;;;;-1.07;84.22;99707.62;1821844;77;27449;-86
2022/11/18 01:49:10;;;;;;;31.10;17.77;;;;;;;-1.05;84.05;99712.27;1810676;77;25328;-86
2022/11/18 01:51:43;;;;;;;29.00;18.25;;;;;;;-1.04;83.90;99710.48;1815384;77;25556;-85
2022/11/18 01:54:15;;;;;;;29.67;18.65;;;;;;;-1.04;83.94;99699.96;1816267;77;26546;-86
2022/11/18 01:56:46;;;;;;;31.40;19.02;;;;;;;-1.02;83.97;99700.66;1828068;77;26513;-87
2022/11/18 01:59:17;;;;;;;31.40;18.05;;;;;;;-0.98;83.99;99696.79;1825129;77;28381;-85
2022/11/18 02:01:44;;;;;;;30.05;18.73;;;;;;;-0.96;83.74;99691.75;1796800;78;25826;-86
2022/11/18 02:04:13;;;;;;;27.65;17.15;;;;;;;-0.94;83.77;99684.56;1820223;77;26108;-86
2022/11/18 02:06:43;;;;;;;31.35;19.10;;;;;;;-0.91;83.69;99675.57;1813919;78;26025;-86
2022/11/18 02:09:09;;;;;;;29.40;17.98;;;;;;;-0.85;83.78;99685.06;1790765;78;25801;-85
2022/11/18 02:11:53;;;;;;;28.92;17.62;;;;;;;-0.80;83.88;99678.08;1813851;77;28414;-86
2022/11/18 02:14:27;;;;;;;28.30;18.57;;;;;;;-0.75;83.81;99678.98;1812466;77;25927;-86
2022/11/18 02:17:08;;;;;;;23.98;16.67;;;;;;;-0.71;83.79;99673.31;1799259;78;26434;-86
2022/11/18 02:19:58;;;;;;;25.65;17.15;;;;;;;-0.66;83.84;99682.11;1801841;78;25762;-87
2022/11/18 02:22:45;;;;;;;28.35;17.15;;;;;;;-0.61;83.80;99685.98;1795581;78;26361;-86
2022/11/18 02:25:27;;;;;;;25.02;16.48;;;;;;;-0.59;83.47;99684.04;1775043;78;27502;-87
2022/11/18 02:28:34;;;;;;;26.62;16.57;;;;;;;-0.57;83.77;99687.84;1800168;78;25920;-86
2022/11/18 02:31:17;;;;;;;28.02;16.73;;;;;;;-0.55;83.80;99685.89;1786772;80;25321;-85
2022/11/18 02:33:54;;;;;;;26.50;17.15;;;;;;;-0.51;84.02;99686.80;1803239;78;25929;-86
2022/11/18 02:36:41;;;;;;;28.92;16.85;;;;;;;-0.47;84.25;99690.81;1781565;79;25939;-86
2022/11/18 02:39:19;;;;;;;26.48;17.80;;;;;;;-0.43;84.35;99683.02;1813805;78;27464;-86
2022/11/18 02:41:48;;;;;;;30.50;18.67;;;;;;;-0.39;84.13;99683.55;1800881;78;26403;-86
2022/11/18 02:44:17;;;;;;;26.40;16.77;;;;;;;-0.37;83.76;99673.72;1817358;78;25861;-85
2022/11/18 02:46:49;;;;;;;27.80;17.17;;;;;;;-0.37;83.50;99679.81;1792503;79;25773;-85
2022/11/18 02:49:39;;;;;;;28.67;16.57;;;;;;;-0.39;83.58;99681.77;1825450;78;25756;-86
2022/11/18 02:52:09;;;;;;;28.92;18.25;;;;;;;-0.38;83.68;99684.72;1820109;77;27539;-87
2022/11/18 02:54:39;;;;;;;26.68;16.90;;;;;;;-0.38;83.67;99682.09;1780906;78;25998;-86
2022/11/18 02:57:07;;;;;;;28.70;18.92;;;;;;;-0.40;83.48;99681.40;1808636;77;26164;-86
2022/11/18 02:59:33;;;;;;;30.00;17.45;;;;;;;-0.43;83.41;99680.86;1817247;77;26533;-87
2022/11/18 03:02:01;;;;;;;31.05;18.77;;;;;;;-0.46;83.42;99677.18;1833474;78;25833;-86
2022/11/18 03:04:28;;;;;;;28.98;17.07;;;;;;;-0.50;83.28;99678.43;1800717;77;27447;-87
2022/11/18 03:07:22;;;;;;;30.97;18.25;;;;;;;-0.58;83.26;99679.14;1816918;78;25855;-87
2022/11/18 03:09:51;;;;;;;28.25;16.82;;;;;;;-0.64;83.40;99678.34;1822883;77;26009;-87
2022/11/18 03:12:23;;;;;;;24.57;17.27;;;;;;;-0.70;83.44;99672.34;1783534;80;26423;-86
2022/11/18 03:14:58;;;;;;;33.33;17.87;;;;;;;-0.74;83.60;99668.33;1802818;78;25755;-87
2022/11/18 03:17:49;;;;;;;28.98;16.95;;;;;;;-0.73;83.73;99667.38;1803582;78;27436;-87
2022/11/18 03:20:28;;;;;;;32.17;18.12;;;;;;;-0.77;83.73;99664.67;1828978;77;25909;-86
2022/11/18 03:23:15;;;;;;;33.78;19.17;;;;;;;-0.81;84.01;99665.41;1830816;77;26579;-86
2022/11/18 03:26:02;;;;;;;28.00;17.23;;;;;;;-0.81;84.15;99664.09;1821831;77;25927;-86
2022/11/18 03:28:52;;;;;;;30.02;17.25;;;;;;;-0.83;84.25;99656.00;1793746;78;25812;-87
2022/11/18 03:31:36;;;;;;;28.93;17.80;;;;;;;-0.90;84.35;99656.22;1828478;77;27643;-86
2022/11/18 03:34:19;;;;;;;28.25;17.23;;;;;;;-0.93;84.61;99656.01;1781118;77;25864;-86
2022/11/18 03:36:50;;;;;;;26.85;16.67;;;;;;;-0.97;84.76;99650.68;1794803;78;26124;-86
2022/11/18 03:39:20;;;;;;;27.25;17.05;;;;;;;-0.98;84.89;99656.05;1818363;77;25760;-86
2022/11/18 03:42:01;;;;;;;25.45;16.23;;;;;;;-1.03;84.97;99651.70;1818762;77;26352;-87
2022/11/18 03:44:32;;;;;;;25.08;16.25;;;;;;;-1.06;85.19;99651.49;1823789;77;28253;-86
2022/11/18 03:47:09;;;;;;;25.70;15.63;;;;;;;-1.06;85.34;99654.59;1821809;77;25844;-87
2022/11/18 03:49:46;;;;;;;24.43;16.37;;;;;;;-1.09;85.46;99661.45;1817776;77;25526;-86
2022/11/18 03:52:21;;;;;;;27.67;16.55;;;;;;;-1.08;85.72;99660.47;1817504;77;25772;-86
2022/11/18 03:54:51;;;;;;;22.62;14.65;;;;;;;-1.07;85.73;99659.52;1827479;77;25958;-86
2022/11/18 03:57:23;;;;;;;25.97;15.38;;;;;;;-1.08;85.81;99659.16;1812171;77;27426;-86
2022/11/18 04:00:10;;;;;;;24.32;16.20;;;;;;;-1.11;85.82;99662.88;1818476;78;26357;-85
2022/11/18 04:02:37;;;;;;;20.82;14.30;;;;;;;-1.10;85.93;99660.61;1808601;77;26438;-86
2022/11/18 04:05:08;;;;;;;20.48;13.20;;;;;;;-1.09;86.07;99666.20;1810630;77;25772;-86
2022/11/18 04:07:58;;;;;;;19.90;13.65;;;;;;;-1.09;86.10;99663.58;1828342;77;25304;-86
2022/11/18 04:10:53;;;;;;;19.62;12.95;;;;;;;-1.09;86.21;99666.20;1795941;78;27450;-86
2022/11/18 04:13:30;;;;;;;22.70;15.00;;;;;;;-1.09;86.20;99673.28;1785050;78;26120;-85
2022/11/18 04:15:56;;;;;;;20.75;14.00;;;;;;;-1.11;86.33;99669.96;1818054;77;25799;-86
2022/11/18 04:18:23;;;;;;;18.32;12.95;;;;;;;-1.11;86.24;99666.83;1811873;78;26512;-85
2022/11/18 04:20:49;;;;;;;24.05;13.60;;;;;;;-1.10;86.52;99665.03;1824448;77;25738;-86
2022/11/18 04:23:15;;;;;;;23.42;14.47;;;;;;;-1.12;86.52;99663.86;1799955;78;27415;-88
2022/11/18 04:25:42;;;;;;;26.27;15.50;;;;;;;-1.10;86.58;99668.50;1837007;77;25893;-86
2022/11/18 04:28:08;;;;;;;25.25;15.03;;;;;;;-1.08;86.70;99665.73;1772939;79;25830;-85
2022/11/18 04:30:34;;;;;;;23.20;14.40;;;;;;;-1.05;86.83;99661.53;1806469;77;25803;-87
2022/11/18 04:33:01;;;;;;;21.90;14.60;;;;;;;-1.07;86.79;99655.07;1808120;77;26432;-86
2022/11/18 04:35:28;;;;;;;20.60;14.18;;;;;;;-1.06;86.90;99659.38;1811643;77;27429;-86
2022/11/18 04:37:54;;;;;;;21.23;14.40;;;;;;;-1.06;86.98;99662.48;1821930;77;25874;-86
2022/11/18 04:40:21;;;;;;;19.75;13.13;;;;;;;-1.05;87.04;99658.90;1823782;77;25937;-85
2022/11/18 04:42:47;;;;;;;20.97;13.28;;;;;;;-1.06;87.05;99656.75;1796999;78;26144;-86
2022/11/18 04:45:13;;;;;;;21.10;13.53;;;;;;;-1.08;86.95;99652.59;1822168;78;25764;-86
2022/11/18 04:47:39;;;;;;;19.17;13.50;;;;;;;-1.08;86.98;99653.42;1828252;77;28297;-86
2022/11/18 04:50:06;;;;;;;19.37;12.75;;;;;;;-1.07;87.03;99649.01;1824944;77;25965;-87
2022/11/18 04:52:33;;;;;;;21.15;14.18;;;;;;;-1.07;87.11;99647.69;1807018;78;25487;-86
2022/11/18 04:55:00;;;;;;;18.85;13.20;;;;;;;-1.05;87.17;99643.13;1788303;79;25885;-85
2022/11/18 04:57:26;;;;;;;20.20;13.95;;;;;;;-1.02;87.17;99647.62;1798672;78;25867;-87
2022/11/18 04:59:52;;;;;;;21.55;12.55;;;;;;;-0.98;87.27;99654.73;1794827;78;27432;-86
2022/11/18 05:02:18;;;;;;;18.00;12.13;;;;;;;-0.97;87.01;99650.68;1804927;78;25762;-85
2022/11/18 05:04:45;;;;;;;15.00;11.68;;;;;;;-0.97;86.85;99648.53;1830494;77;25871;-86
2022/11/18 05:07:14;;;;;;;14.70;9.35;;;;;;;-0.96;86.83;99649.69;1814660;77;26278;-85
2022/11/18 05:09:40;;;;;;;17.45;10.58;;;;;;;-0.95;86.62;99654.00;1779387;78;25911;-85
2022/11/18 05:14:57;;;;;;;13.68;8.55;;;;;;;-0.97;86.65;99659.04;1829831;76;25768;-86
2022/11/18 05:17:24;;;;;;;13.35;7.97;;;;;;;-0.98;86.41;99662.14;1833763;77;25725;-87
2022/11/18 05:19:50;;;;;;;11.03;8.03;;;;;;;-1.02;86.15;99657.30;1834331;77;26568;-85
2022/11/18 05:22:16;;;;;;;10.08;7.35;;;;;;;-1.07;85.86;99658.20;1823928;77;25850;-86
2022/11/18 05:24:43;;;;;;;10.28;6.60;;;;;;;-1.08;85.79;99654.74;1805265;77;28353;-85
2022/11/18 05:27:10;;;;;;;11.55;7.25;;;;;;;-1.07;85.76;99652.44;1784416;79;26396;-86
2022/11/18 05:29:37;;;;;;;10.45;6.92;;;;;;;-1.08;85.45;99648.17;1819385;77;25952;-86
2022/11/18 05:32:04;;;;;;;8.98;6.97;;;;;;;-1.08;85.43;99648.17;1812946;77;25761;-86
2022/11/18 05:34:30;;;;;;;8.15;6.37;;;;;;;-1.08;85.41;99646.02;1817018;77;25301;-86
2022/11/18 05:36:56;;;;;;;11.78;7.75;;;;;;;-1.08;85.22;99644.23;1839777;76;27453;-85
2022/11/18 05:39:23;;;;;;;10.60;6.42;;;;;;;-1.09;85.39;99641.75;1818916;77;25703;-86
2022/11/18 05:44:34;;;;;;;10.40;6.20;;;;;;;-1.09;85.39;99644.38;1809971;77;25833;-86
2022/11/18 05:47:00;;;;;;;10.68;6.60;;;;;;;-1.13;85.21;99643.80;1816727;78;25789;-86
2022/11/18 05:49:26;;;;;;;9.58;5.70;;;;;;;-1.15;85.42;99644.89;1828428;76;27456;-86
2022/11/18 05:51:53;;;;;;;7.97;6.17;;;;;;;-1.17;85.30;99643.72;1822622;77;25734;-86
2022/11/18 05:54:20;;;;;;;9.53;6.45;;;;;;;-1.21;85.27;99645.44;1809046;77;25755;-85
2022/11/18 05:56:47;;;;;;;7.85;5.30;;;;;;;-1.23;85.35;99640.33;1795044;78;25995;-86
2022/11/18 05:59:14;;;;;;;10.48;7.15;;;;;;;-1.25;85.35;99638.33;1828486;77;25667;-85
2022/11/18 06:02:01;;;;;;;11.08;6.95;;;;;;;-1.26;85.55;99641.90;1811268;77;28255;-87
2022/11/18 06:04:42;;;;;;;10.72;6.65;;;;;;;-1.28;85.42;99642.52;1817162;77;25762;-85
2022/11/18 06:07:19;;;;;;;8.98;6.50;;;;;;;-1.25;85.54;99642.27;1817151;78;25752;-86
2022/11/18 06:09:48;;;;;;;10.98;6.55;;;;;;;-1.21;85.45;99649.38;1828043;77;25857;-85
2022/11/18 06:12:19;;;;;;;9.45;7.00;;;;;;;-1.22;85.41;99649.86;1827151;77;26432;-86
2022/11/18 06:14:57;;;;;;;10.53;6.47;;;;;;;-1.20;85.59;99644.02;1798001;78;27425;-86
2022/11/18 06:17:29;;;;;;;9.08;5.78;;;;;;;-1.14;85.44;99653.97;1804775;77;26075;-86
2022/11/18 06:19:57;;;;;;;10.50;6.45;;;;;;;-1.14;85.16;99649.20;1812760;77;26381;-86
2022/11/18 06:22:24;;;;;;;9.63;6.55;;;;;;;-1.14;85.16;99648.72;1820414;77;26525;-85
2022/11/18 06:24:50;;;;;;;11.30;7.08;;;;;;;-1.14;85.05;99653.97;1811473;77;26095;-85
2022/11/18 06:27:17;;;;;;;9.95;6.50;;;;;;;-1.12;85.10;99652.52;1822996;77;28292;-85
2022/11/18 06:29:43;;;;;;;10.18;6.72;;;;;;;-1.08;85.13;99653.91;1812043;78;25746;-86
2022/11/18 06:32:10;;;;;;;11.12;6.40;;;;;;;-1.07;85.03;99659.02;1804690;78;25829;-85
2022/11/18 06:34:36;;;;;;;10.38;6.65;;;;;;;-1.04;84.99;99667.11;1830510;76;25888;-86
2022/11/18 06:37:19;;;;;;;9.20;6.10;;;;;;;-1.04;84.85;99663.17;1831897;77;25982;-88
2022/11/18 06:39:45;;;;;;;8.73;6.17;;;;;;;-1.03;84.84;99662.22;1816976;77;27439;-85
2022/11/18 06:44:58;;;;;;;9.10;5.53;;;;;;;-1.05;84.77;99665.47;1805296;78;26216;-86
2022/11/18 06:47:24;;;;;;;9.18;6.00;;;;;;;-1.08;84.58;99669.20;1806326;78;26268;-84
2022/11/18 06:49:50;;;;;;;7.72;6.00;;;;;;;-1.09;84.66;99662.26;1788833;78;25885;-86
2022/11/18 06:52:16;;;;;;;8.90;6.45;;;;;;;-1.10;84.66;99655.36;1825419;77;27424;-85
2022/11/18 06:54:43;;;;;;;8.60;5.78;;;;;;;-1.09;84.63;99657.52;1803298;77;25970;-85
2022/11/18 06:57:09;;;;;;;8.90;6.33;;;;;;;-1.08;84.63;99662.62;1813806;77;25780;-85
2022/11/18 06:59:35;;;;;;;11.97;6.75;;;;;;;-1.06;84.62;99659.38;1819870;77;25768;-85
2022/11/18 07:02:01;;;;;;;8.95;5.75;;;;;;;-1.04;84.58;99657.91;1836309;77;25736;-85
2022/11/18 07:04:28;;;;;;;8.88;5.85;;;;;;;-1.02;84.53;99663.39;1836340;77;27435;-86
2022/11/18 07:06:54;;;;;;;7.33;4.90;;;;;;;-1.00;84.33;99662.77;1817745;77;25772;-86
2022/11/18 07:09:20;;;;;;;8.63;5.90;;;;;;;-0.99;84.34;99660.98;1823379;77;25756;-86
2022/11/18 07:11:46;;;;;;;10.10;6.00;;;;;;;-1.01;84.05;99662.44;1813317;78;25842;-87
2022/11/18 07:14:13;;;;;;;7.40;5.83;;;;;;;-0.98;83.86;99664.77;1802610;78;25313;-85
2022/11/18 07:16:39;;;;;;;8.73;5.70;;;;;;;-0.99;83.71;99666.23;1817347;77;28240;-85
2022/11/18 07:19:11;;;;;;;10.10;6.50;;;;;;;-0.99;83.64;99670.17;1823093;77;25790;-85
2022/11/18 07:21:39;;;;;;;8.25;5.70;;;;;;;-1.00;83.65;99673.28;1801764;78;25876;-85
2022/11/18 07:24:07;;;;;;;7.67;5.22;;;;;;;-1.03;83.32;99685.88;1787128;78;25857;-85
2022/11/18 07:26:35;;;;;;;6.85;4.70;;;;;;;-1.08;83.38;99691.53;1825241;76;25893;-86
2022/11/18 07:29:01;;;;;;;9.63;6.37;;;;;;;-1.11;83.09;99684.41;1814671;77;27586;-86
2022/11/18 07:31:27;;;;;;;10.03;5.42;;;;;;;-1.17;83.11;99679.67;1816557;78;25795;-85
2022/11/18 07:33:54;;;;;;;7.92;5.62;;;;;;;-1.19;83.05;99683.75;1808245;78;25930;-85
2022/11/18 07:36:25;;;;;;;9.58;6.03;;;;;;;-1.20;83.01;99680.80;1801558;78;26996;-85
2022/11/18 07:38:52;;;;;;;8.05;4.87;;;;;;;-1.21;83.09;99685.69;1799903;78;26318;-86
2022/11/18 07:41:23;;;;;;;11.30;6.30;;;;;;;-1.23;82.85;99691.56;1810848;77;27472;-86
2022/11/18 07:43:50;;;;;;;10.13;6.15;;;;;;;-1.24;82.90;99689.08;1824606;77;25771;-86
2022/11/18 07:46:27;;;;;;;10.20;6.10;;;;;;;-1.28;82.84;99691.62;1790669;78;25916;-85
2022/11/18 07:48:56;;;;;;;8.90;5.85;;;;;;;-1.28;82.96;99689.00;1804996;78;26995;-85
2022/11/18 07:51:27;;;;;;;11.05;6.95;;;;;;;-1.28;82.96;99694.25;1815585;77;25858;-86
2022/11/18 07:53:53;;;;;;;10.48;6.30;;;;;;;-1.28;83.08;99701.63;1812976;77;27429;-86
2022/11/18 07:56:21;;;;;;;7.92;5.37;;;;;;;-1.24;83.13;99700.90;1809098;77;25776;-85
2022/11/18 07:58:53;;;;;;;7.85;5.20;;;;;;;-1.21;83.08;99699.30;1827230;77;25675;-86
2022/11/18 08:01:23;;;;;;;8.28;5.70;;;;;;;-1.21;82.93;99696.20;1789308;77;25723;-82
2022/11/18 08:03:50;;;;;;;9.55;5.92;;;;;;;-1.20;82.97;99699.66;1837804;77;26293;-85
2022/11/18 08:06:18;;;;;;;9.23;6.33;;;;;;;-1.20;82.93;99703.60;1828595;77;27507;-85
2022/11/18 08:08:45;;;;;;;7.62;5.22;;;;;;;-1.18;82.99;99701.67;1821499;77;25280;-85
2022/11/18 08:11:16;;;;;;;8.88;5.85;;;;;;;-1.14;83.02;99703.06;1832216;77;26461;-85
2022/11/18 08:13:43;;;;;;;9.58;5.78;;;;;;;-1.14;82.95;99696.49;1821418;77;25770;-85
2022/11/18 08:16:19;;;;;;;8.73;6.08;;;;;;;-1.15;82.88;99702.22;1821717;77;25776;-85
2022/11/18 08:18:46;;;;;;;9.05;5.92;;;;;;;-1.14;83.10;99707.84;1812060;78;28164;-85
2022/11/18 08:21:14;;;;;;;10.60;5.83;;;;;;;-1.10;83.16;99706.60;1847747;76;25817;-85
2022/11/18 08:23:41;;;;;;;11.40;7.20;;;;;;;-1.08;83.06;99709.92;1818228;77;25360;-84
2022/11/18 08:26:14;;;;;;;9.58;5.78;;;;;;;-1.05;83.07;99716.20;1819944;77;26460;-85
2022/11/18 08:28:42;;;;;;;9.03;6.12;;;;;;;-0.99;82.82;99718.80;1828786;77;25636;-85
2022/11/18 08:31:21;;;;;;;9.68;6.60;;;;;;;-1.01;82.76;99718.94;1815360;76;27427;-84
2022/11/18 08:33:47;;;;;;;9.85;6.60;;;;;;;-0.96;82.95;99715.88;1814426;76;25902;-85
2022/11/18 08:36:20;;;;;;;11.10;6.47;;;;;;;-0.91;82.80;99719.78;1823716;77;25929;-85
2022/11/18 08:38:48;;;;;;;9.48;6.12;;;;;;;-0.91;82.44;99715.00;1826687;77;25882;-85
2022/11/18 08:41:19;;;;;;;10.85;6.22;;;;;;;-0.90;82.58;99718.80;1811901;77;26284;-85
2022/11/18 08:43:45;;;;;;;9.85;7.12;;;;;;;-0.86;82.70;99724.16;1818916;77;28320;-84
2022/11/18 08:46:11;;;;;;;9.48;6.53;;;;;;;-0.80;82.78;99721.45;1816195;77;25615;-86
2022/11/18 08:48:41;;;;;;;11.15;5.92;;;;;;;-0.78;82.39;99720.84;1818057;77;25275;-91
2022/11/18 08:51:11;;;;;;;10.98;6.40;;;;;;;-0.77;82.36;99720.69;1779290;78;25758;-83
2022/11/18 08:53:37;;;;;;;9.78;6.28;;;;;;;-0.77;82.12;99718.06;1821842;76;25736;-86
2022/11/18 08:56:04;;;;;;;8.75;6.25;;;;;;;-0.74;82.28;99724.02;1824561;77;27481;-86
2022/11/18 08:58:31;;;;;;;11.63;6.47;;;;;;;-0.71;82.04;99718.50;1811787;78;25289;-88
2022/11/18 09:00:57;;;;;;;10.13;6.40;;;;;;;-0.66;82.53;99718.92;1823779;77;26459;-89
2022/11/18 09:03:23;;;;;;;11.33;7.20;;;;;;;-0.63;82.14;99718.64;1832535;77;25808;-79
2022/11/18 09:05:50;;;;;;;8.88;5.72;;;;;;;-0.58;82.07;99719.06;1837234;77;26395;-83
2022/11/18 09:08:16;;;;;;;10.10;6.65;;;;;;;-0.54;81.91;99723.08;1831213;77;28017;-83
2022/11/18 09:10:44;;;;;;;10.28;6.78;;;;;;;-0.57;81.76;99714.97;1811719;77;25802;-84
2022/11/18 09:13:10;;;;;;;10.13;7.10;;;;;;;-0.53;81.76;99719.47;1818596;78;26032;-84
2022/11/18 09:15:36;;;;;;;9.25;6.40;;;;;;;-0.49;81.77;99720.37;1812125;78;26552;-84
2022/11/18 09:18:03;;;;;;;9.75;5.75;;;;;;;-0.43;81.80;99729.05;1800850;77;26520;-84
2022/11/18 09:20:29;;;;;;;9.13;6.00;;;;;;;-0.39;81.63;99716.44;1805121;77;27513;-84
2022/11/18 09:22:55;;;;;;;32.78;15.13;;;;;;;-0.33;81.65;99721.14;1805761;78;25791;-84
2022/11/18 09:25:22;;;;;;;12.28;7.58;;;;;;;-0.27;81.69;99725.84;1820825;77;25872;-84
2022/11/18 09:27:48;;;;;;;10.28;6.70;;;;;;;-0.21;81.38;99726.59;1819209;77;27243;-84
2022/11/18 09:30:15;;;;;;;11.45;7.28;;;;;;;-0.14;81.30;99718.49;1829128;77;25300;-84
2022/11/18 09:32:41;;;;;;;11.40;5.72;;;;;;;-0.08;81.37;99720.08;1829145;77;27386;-83
2022/11/18 09:35:08;;;;;;;8.68;6.20;;;;;;;-0.07;80.57;99724.39;1818594;77;25927;-83
2022/11/18 09:37:34;;;;;;;8.95;5.90;;;;;;;-0.09;80.23;99725.02;1816537;77;25790;-82
2022/11/18 09:40:00;;;;;;;8.95;6.10;;;;;;;-0.10;79.65;99723.81;1808599;78;26553;-83
2022/11/18 09:43:07;;;;;;;9.08;6.67;;;;;;;-0.10;79.69;99729.08;1786377;78;25307;-83
2022/11/18 09:45:41;;;;;;;9.53;5.53;;;;;;;-0.08;79.87;99724.03;1762835;76;27475;-83
2022/11/18 09:48:20;;;;;;;10.70;7.05;;;;;;;-0.04;79.84;99720.62;1820941;76;26385;-82
2022/11/18 09:50:46;;;;;;;10.45;6.47;;;;;;;0.00;79.88;99721.52;1800724;78;25732;-83
2022/11/18 09:53:23;;;;;;;10.08;6.72;;;;;;;0.05;80.00;99714.52;1783935;78;25913;-83
2022/11/18 09:55:51;;;;;;;9.53;6.12;;;;;;;0.11;79.61;99719.72;1801598;78;25917;-87
2022/11/18 09:58:34;;;;;;;9.78;6.62;;;;;;;0.14;79.37;99718.94;1790266;78;27484;-85
2022/11/18 10:01:01;;;;;;;10.25;7.45;;;;;;;0.14;79.32;99720.73;1818690;77;25735;-87
2022/11/18 10:03:31;;;;;;;8.50;6.20;;;;;;;0.18;79.59;99724.73;1823345;77;25792;-87
2022/11/18 10:06:14;;;;;;;9.00;6.08;;;;;;;0.20;78.95;99713.58;1826650;77;25314;-89
2022/11/18 10:08:52;;;;;;;8.03;6.00;;;;;;;0.17;78.68;99715.20;1839316;76;25817;-86
2022/11/18 10:11:34;;;;;;;;;;;;;;;;;;;;;
2022/11/18 10:14:35;;;;;;;;;;;;;;;;;;;;;
2022/11/18 10:18:11;;;;;;;;;;;;;;;;;;;;;
2022/11/18 10:20:56;;;;;;;8.83;5.78;;;;;;;0.18;78.51;99725.58;1702200;80;25909;-86
2022/11/18 10:23:40;;;;;;;26.48;14.85;;;;;;;0.21;78.71;99723.98;1714196;81;25679;-86
2022/11/18 10:26:06;;;;;;;10.58;7.45;;;;;;;0.24;78.72;99726.80;1782479;79;27539;-88
2022/11/18 10:28:32;;;;;;;8.35;5.95;;;;;;;0.30;78.76;99722.30;1796144;79;26510;-87
2022/11/18 10:31:09;;;;;;;8.95;6.53;;;;;;;0.32;78.55;99723.80;1825777;76;25742;-86
2022/11/18 10:33:38;;;;;;;6.33;5.33;;;;;;;0.34;78.37;99723.67;1816516;77;25993;-86
2022/11/18 10:36:26;;;;;;;9.45;5.08;;;;;;;0.36;78.19;99714.66;1834600;77;26367;-86
2022/11/18 10:39:09;;;;;;;7.00;5.03;;;;;;;0.39;78.33;99722.25;1814307;77;27524;-86
2022/11/18 10:41:47;;;;;;;5.00;3.65;;;;;;;0.37;77.49;99716.78;1829414;77;26186;-86
2022/11/18 10:44:39;;;;;;;4.58;3.90;;;;;;;0.32;76.36;99724.30;1812861;77;25804;-87
2022/11/18 10:47:29;;;;;;;4.12;2.98;;;;;;;0.25;76.17;99726.67;1811580;77;25774;-86
2022/11/18 10:50:01;;;;;;;7.65;4.40;;;;;;;0.17;75.65;99735.75;1812300;78;25875;-87
2022/11/18 10:52:29;;;;;;;6.72;4.40;;;;;;;0.12;76.05;99738.00;1821122;77;27522;-87
2022/11/18 10:55:19;;;;;;;5.15;3.92;;;;;;;0.11;76.31;99740.27;1814990;77;26315;-87
2022/11/18 10:57:47;;;;;;;7.75;4.65;;;;;;;0.15;76.74;99744.28;1804822;77;25867;-85
2022/11/18 11:00:39;;;;;;;5.92;4.33;;;;;;;0.20;76.96;99738.59;1813217;77;26933;-87
2022/11/18 11:03:28;;;;;;;6.00;4.53;;;;;;;0.31;77.79;99739.27;1809465;77;25943;-87
2022/11/18 11:06:29;;;;;;;7.08;5.35;;;;;;;0.33;76.88;99748.33;1819561;77;27464;-84
2022/11/18 11:09:06;;;;;;;7.25;5.12;;;;;;;0.35;76.60;99749.02;1818583;78;25963;-85
2022/11/18 11:11:43;;;;;;;5.83;4.37;;;;;;;0.28;76.25;99750.08;1808194;78;25373;-90
2022/11/18 11:14:26;;;;;;;6.53;4.30;;;;;;;0.22;76.16;99749.33;1806063;77;26631;-85
2022/11/18 11:17:11;;;;;;;9.68;5.67;;;;;;;0.22;76.73;99751.97;1828052;77;25662;-84
2022/11/18 11:20:07;;;;;;;6.70;4.50;;;;;;;0.23;76.95;99748.38;1819209;77;27498;-83
2022/11/18 11:22:33;;;;;;;6.10;3.90;;;;;;;0.26;76.95;99744.60;1763173;78;25922;-84
2022/11/18 11:25:00;;;;;;;6.00;4.03;;;;;;;0.26;76.41;99749.87;1808581;78;25763;-84
2022/11/18 11:27:48;;;;;;;6.85;4.50;;;;;;;0.24;76.37;99751.81;1814919;78;26545;-86
2022/11/18 11:30:20;;;;;;;8.30;4.45;;;;;;;0.21;76.47;99755.59;1810891;78;25872;-84
2022/11/18 11:33:14;;;;;;;5.22;3.95;;;;;;;0.18;76.22;99757.66;1824625;77;28344;-83
2022/11/18 11:35:52;;;;;;;5.55;3.70;;;;;;;0.10;75.60;99755.73;1819194;77;25931;-83
2022/11/18 11:38:53;;;;;;;6.92;4.12;;;;;;;-0.02;75.85;99762.95;1798109;78;25925;-83
2022/11/18 11:41:22;;;;;;;;;;;;;;;-0.04;76.33;99765.37;1796585;78;25784;-83
2022/11/18 11:44:08;;;;;;;4.80;3.42;;;;;;;-0.02;76.51;99767.38;1786259;78;25831;-83
2022/11/18 11:47:45;;;;;;;6.72;3.33;;;;;;;-0.04;76.63;99756.99;1814911;76;27467;-83
2022/11/18 11:49:26;;;;;;;4.83;3.17;;;;;;;0.00;76.52;99758.37;1840261;77;25800;-84
2022/11/18 11:52:07;;;;;;;3.83;2.85;;;;;;;0.00;76.20;99758.37;1827912;77;25798;-83
2022/11/18 11:54:51;;;;;;;3.58;2.98;;;;;;;0.04;76.28;99766.84;1821959;76;26553;-83
2022/11/18 11:57:41;;;;;;;3.83;3.00;;;;;;;0.02;75.06;99764.84;1821283;76;25467;-84
2022/11/18 12:00:15;;;;;;;4.63;2.70;;;;;;;0.00;75.49;99762.83;1832623;77;27431;-83
2022/11/18 12:03:08;;;;;;;4.03;2.47;;;;;;;0.02;75.51;99761.36;1816939;77;25822;-82
2022/11/18 12:05:41;;;;;;;4.58;2.40;;;;;;;0.04;75.22;99761.58;1808063;77;25797;-83
2022/11/18 12:08:21;;;;;;;3.17;2.30;;;;;;;0.01;74.59;99755.26;1825496;77;25770;-84
2022/11/18 12:11:08;;;;;;;3.97;2.50;;;;;;;0.01;74.35;99759.20;1827094;76;25864;-84
2022/11/18 12:14:03;;;;;;;3.33;2.35;;;;;;;0.03;74.17;99763.01;1818980;78;27538;-83